Hefei Luogang International Airport
ZSOF : now visible

Airfield :











YOU CAN JOIN US ON...

 
LOGIN :

Register | Disclaimer

   EN    FR    IT 

 









Legend :    VFR   Marginal VFR   IFR   Intensive IFR   Very Intensive IFR
Visi :
Ceiling :
>= 8 km
>= 3000ft
5 to 8 km
1000 to 3000 ft
1500m to 5 km
500 to 1000 ft
800 to 1500m
200 to 500 ft
< 800m
< 200 ft
Symbols :   Thunderstorms  Fog  Heavy snow  Heavy precipitations  Wind > 20 kt






- Airport Elevation : 108 ft
- IATA code : HFE


ZSOF - Hefei Luogang International

CURRENT METAR :
  • 120000Z 16004MPS CAVOK 15/10 Q1018 NOSIG

EXPIRED METARs :
  • 112300Z 16005MPS CAVOK 14/10 Q1017 NOSIG
  • 112200Z 15002MPS 9999 -RA NSC 14/10 Q1017 NOSIG

TAF TAF ZSOF
Valid from the 12 at 00:00 until the 13 at 00:00 UTC


111905Z 1200/1224 16003MPS 3000 BR NSC TX24/1207Z TN09/1223Z
BECMG 1216/1217 2700 -RA BR
BECMG 1217/1218 3000 -RA BR
BECMG 1218/1219 32005MPS



MET'MAP, your aeronautical weather chart ! - Copyright ORBIFLY December 2007 - Disclaimer

ORBIFLY MET'MAP TEAM :

Programming & Development : Alexandra Zaïnal
Concept & Development : Baudouin d'Aumeries
Co-Development & Prog : Marc-Olivier Méhu
Technical & hardware support : Manuel Goepfert

Contact : metmap@orbifly.com




SOURCES & CREDITS :

   NOAA       Earth
Advisory